createdAt,value
2023-02-26T00:01:43.657Z,98.60
2023-02-26T00:04:12.134Z,98.78
2023-02-26T00:06:53.108Z,97.87
2023-02-26T00:09:25.808Z,97.44
2023-02-26T00:11:53.869Z,97.43
2023-02-26T00:14:22.011Z,96.55
2023-02-26T00:17:23.508Z,96.37
2023-02-26T00:19:51.748Z,96.41
2023-02-26T00:22:20.530Z,96.58
2023-02-26T00:24:48.497Z,95.84
2023-02-26T00:27:16.182Z,95.37
2023-02-26T00:29:45.518Z,95.18
2023-02-26T00:32:13.709Z,95.15
2023-02-26T00:34:43.258Z,94.87
2023-02-26T00:37:41.785Z,94.61
2023-02-26T00:40:16.128Z,93.97
2023-02-26T00:42:44.100Z,93.67
2023-02-26T00:45:13.932Z,93.51
2023-02-26T00:48:15.841Z,93.27
2023-02-26T00:51:14.285Z,93.09
2023-02-26T00:54:02.092Z,93.30
2023-02-26T00:56:30.313Z,93.63
2023-02-26T00:58:58.053Z,93.65
2023-02-26T01:01:26.050Z,93.91
2023-02-26T01:03:53.956Z,93.98
2023-02-26T01:06:25.563Z,94.04
2023-02-26T01:09:09.414Z,94.80
2023-02-26T01:11:38.002Z,95.83
2023-02-26T01:14:06.875Z,96.82
2023-02-26T01:17:03.993Z,97.45
2023-02-26T01:19:56.668Z,97.43
2023-02-26T01:22:30.662Z,97.60
2023-02-26T01:25:08.261Z,97.91
2023-02-26T01:27:36.514Z,97.99
2023-02-26T01:30:06.312Z,98.12
2023-02-26T01:32:45.975Z,97.76
2023-02-26T01:35:32.153Z,97.00
2023-02-26T01:38:10.414Z,96.47
2023-02-26T01:41:09.897Z,95.75
2023-02-26T01:43:59.711Z,95.53
2023-02-26T01:46:48.805Z,94.67
2023-02-26T01:49:19.712Z,94.36
2023-02-26T01:51:53.074Z,94.27
2023-02-26T01:54:23.128Z,93.90
2023-02-26T01:56:57.545Z,93.36
2023-02-26T01:59:26.528Z,92.79
2023-02-26T02:01:58.706Z,92.27
2023-02-26T02:04:27.293Z,91.97
2023-02-26T02:06:55.958Z,91.62
2023-02-26T02:09:24.100Z,91.14
2023-02-26T02:12:18.489Z,91.34
2023-02-26T02:14:49.584Z,90.90
2023-02-26T02:17:41.534Z,90.76
2023-02-26T02:20:57.442Z,90.49
2023-02-26T02:23:36.450Z,90.67
2023-02-26T02:26:31.288Z,89.98
2023-02-26T02:29:17.612Z,89.46
2023-02-26T02:31:47.812Z,89.46
2023-02-26T02:34:29.934Z,89.47
2023-02-26T02:37:18.549Z,89.22
2023-02-26T02:39:54.792Z,88.82
2023-02-26T02:42:54.035Z,88.67
2023-02-26T02:45:50.137Z,89.25
2023-02-26T02:48:33.122Z,88.61
2023-02-26T02:51:14.742Z,88.14
2023-02-26T02:53:55.282Z,87.54
2023-02-26T02:56:31.990Z,87.27
2023-02-26T02:59:23.919Z,86.38
2023-02-26T03:01:59.901Z,86.56
2023-02-26T03:04:28.019Z,85.92
2023-02-26T03:06:55.785Z,84.88
2023-02-26T03:09:24.126Z,84.38
2023-02-26T03:11:51.889Z,84.23
2023-02-26T03:14:20.028Z,84.28
2023-02-26T03:17:08.155Z,84.71
2023-02-26T03:19:57.088Z,83.87
2023-02-26T03:22:31.529Z,83.70
2023-02-26T03:25:09.725Z,83.94
2023-02-26T03:27:57.536Z,84.22
2023-02-26T03:30:42.650Z,84.68
2023-02-26T03:33:34.908Z,85.13
2023-02-26T03:36:18.433Z,84.97
2023-02-26T03:39:29.082Z,85.42
2023-02-26T03:42:09.711Z,85.67
2023-02-26T03:44:57.017Z,85.27
2023-02-26T03:47:26.601Z,85.31
2023-02-26T03:50:22.020Z,85.71
2023-02-26T03:53:16.807Z,85.74
2023-02-26T03:56:06.796Z,85.72
2023-02-26T03:58:38.129Z,85.62
2023-02-26T04:01:54.444Z,85.95
2023-02-26T04:04:35.477Z,85.74
2023-02-26T04:07:03.726Z,85.23
2023-02-26T04:09:31.663Z,84.77
2023-02-26T04:11:59.756Z,84.00
2023-02-26T04:14:28.097Z,83.23
2023-02-26T04:16:55.861Z,82.32
2023-02-26T04:19:24.007Z,81.95
2023-02-26T04:21:52.120Z,81.30
2023-02-26T04:24:20.298Z,81.16
2023-02-26T04:26:49.238Z,80.62
2023-02-26T04:29:17.840Z,80.31
2023-02-26T04:31:45.641Z,80.04
2023-02-26T04:34:13.781Z,79.38
2023-02-26T04:36:41.685Z,79.89
2023-02-26T04:39:10.778Z,79.59
2023-02-26T04:41:39.557Z,79.00
2023-02-26T04:44:07.862Z,78.51
2023-02-26T04:46:37.905Z,78.54
2023-02-26T04:49:05.973Z,79.18
2023-02-26T04:51:33.769Z,78.81
2023-02-26T04:54:01.814Z,79.39
2023-02-26T04:56:29.629Z,79.33
2023-02-26T04:58:58.240Z,79.82
2023-02-26T05:01:29.832Z,79.90
2023-02-26T05:03:59.360Z,80.39
2023-02-26T05:06:27.339Z,79.29
2023-02-26T05:08:55.427Z,80.06
2023-02-26T05:11:23.554Z,79.87
2023-02-26T05:13:51.483Z,79.83
2023-02-26T05:16:19.342Z,79.52
2023-02-26T05:18:47.504Z,79.54
2023-02-26T05:21:15.480Z,80.14
2023-02-26T05:23:43.679Z,80.00
2023-02-26T05:26:11.428Z,79.76
2023-02-26T05:28:39.446Z,79.52
2023-02-26T05:31:07.698Z,79.73
2023-02-26T05:33:36.497Z,79.71
2023-02-26T05:36:04.793Z,79.70
2023-02-26T05:38:33.138Z,79.19
2023-02-26T05:41:01.146Z,79.23
2023-02-26T05:43:29.522Z,79.84
2023-02-26T05:45:57.796Z,79.84
2023-02-26T05:48:25.824Z,79.70
2023-02-26T05:50:53.994Z,80.47
2023-02-26T05:53:21.899Z,80.84
2023-02-26T05:55:50.477Z,80.76
2023-02-26T05:58:18.787Z,80.88
2023-02-26T06:00:46.665Z,81.43
2023-02-26T06:03:15.363Z,81.51
2023-02-26T06:05:43.060Z,81.65
2023-02-26T06:08:12.246Z,82.11
2023-02-26T06:10:39.982Z,82.58
2023-02-26T06:13:07.996Z,82.62
2023-02-26T06:15:35.759Z,82.66
2023-02-26T06:18:03.844Z,82.39
2023-02-26T06:20:31.586Z,82.66
2023-02-26T06:22:59.518Z,82.68
2023-02-26T06:25:27.272Z,83.34
2023-02-26T06:27:55.276Z,82.33
2023-02-26T06:30:23.956Z,81.93
2023-02-26T06:32:51.963Z,81.12
2023-02-26T06:35:19.716Z,80.40
2023-02-26T06:37:47.688Z,79.26
2023-02-26T06:40:15.706Z,79.30
2023-02-26T06:42:43.931Z,79.00
2023-02-26T06:45:11.911Z,77.59
2023-02-26T06:47:40.021Z,76.50
2023-02-26T06:50:08.313Z,77.11
2023-02-26T06:52:36.625Z,76.77
2023-02-26T06:55:05.322Z,76.51
2023-02-26T06:57:33.235Z,76.04
2023-02-26T07:00:01.389Z,74.60
2023-02-26T07:02:29.908Z,74.19
2023-02-26T07:04:57.808Z,74.34
2023-02-26T07:07:25.884Z,73.87
2023-02-26T07:09:53.549Z,73.19
2023-02-26T07:12:21.538Z,73.72
2023-02-26T07:14:49.222Z,73.91
2023-02-26T07:17:23.664Z,73.40
2023-02-26T07:19:53.093Z,72.48
2023-02-26T07:22:22.232Z,71.97
2023-02-26T07:24:51.395Z,71.48
2023-02-26T07:27:19.553Z,71.08
2023-02-26T07:29:47.329Z,70.07
2023-02-26T07:32:15.302Z,69.07
2023-02-26T07:34:42.997Z,68.87
2023-02-26T07:37:10.934Z,68.13
2023-02-26T07:39:38.599Z,68.14
2023-02-26T07:42:06.575Z,67.04
2023-02-26T07:44:34.543Z,66.93
2023-02-26T07:47:02.619Z,66.11
2023-02-26T07:49:30.450Z,65.40
2023-02-26T07:51:58.605Z,65.10
2023-02-26T07:54:26.462Z,64.74
2023-02-26T07:56:54.593Z,64.46
2023-02-26T07:59:22.692Z,64.64
2023-02-26T08:01:50.634Z,63.93
2023-02-26T08:04:18.451Z,64.10
2023-02-26T08:06:46.423Z,63.85
2023-02-26T08:09:14.198Z,63.50
2023-02-26T08:11:43.326Z,63.60
2023-02-26T08:14:12.337Z,62.56
2023-02-26T08:16:40.916Z,61.96
2023-02-26T08:19:08.722Z,61.06
2023-02-26T08:21:36.803Z,60.83
2023-02-26T08:24:04.681Z,61.12
2023-02-26T08:26:35.662Z,60.64
2023-02-26T08:29:03.777Z,60.65
2023-02-26T08:31:32.250Z,60.57
2023-02-26T08:34:00.081Z,59.82
2023-02-26T08:36:28.495Z,59.52
2023-02-26T08:38:56.333Z,60.33
2023-02-26T08:41:25.221Z,59.55
2023-02-26T08:43:53.241Z,59.81
2023-02-26T08:46:21.441Z,59.82
2023-02-26T08:48:49.183Z,59.59
2023-02-26T08:51:17.260Z,59.80
2023-02-26T08:53:46.593Z,59.79
2023-02-26T08:56:14.641Z,59.90
2023-02-26T08:58:42.480Z,59.69
2023-02-26T09:01:10.650Z,59.93
2023-02-26T09:03:38.411Z,60.25
2023-02-26T09:06:06.472Z,60.78
2023-02-26T09:08:34.398Z,61.56
2023-02-26T09:11:03.617Z,61.29
2023-02-26T09:13:31.669Z,60.61
2023-02-26T09:15:59.787Z,61.23
2023-02-26T09:18:27.660Z,60.59
2023-02-26T09:20:55.768Z,61.01
2023-02-26T09:23:23.632Z,60.74
2023-02-26T09:25:56.281Z,60.01
2023-02-26T09:28:25.442Z,60.20
2023-02-26T09:30:55.088Z,60.39
2023-02-26T09:33:23.641Z,59.09
2023-02-26T09:35:52.798Z,58.71
2023-02-26T09:38:21.110Z,59.36
2023-02-26T09:41:05.218Z,60.06
2023-02-26T09:43:44.582Z,60.82
2023-02-26T09:47:04.898Z,60.45
2023-02-26T09:49:46.491Z,61.06
2023-02-26T09:52:32.666Z,61.14
2023-02-26T09:55:21.206Z,62.14
2023-02-26T09:57:52.614Z,60.99
2023-02-26T10:00:48.284Z,61.03
2023-02-26T10:03:37.777Z,61.33
2023-02-26T10:06:23.764Z,61.13
2023-02-26T10:08:52.178Z,61.42
2023-02-26T10:11:29.524Z,61.86
2023-02-26T10:14:11.803Z,61.78
2023-02-26T10:16:46.395Z,61.59
2023-02-26T10:19:21.039Z,62.07
2023-02-26T10:22:24.695Z,62.18
2023-02-26T10:25:03.903Z,62.50
2023-02-26T10:27:58.436Z,62.97
2023-02-26T10:30:44.592Z,62.91
2023-02-26T10:33:37.641Z,62.96
2023-02-26T10:36:16.853Z,62.59
2023-02-26T10:38:47.784Z,62.81
2023-02-26T10:41:22.135Z,63.35
2023-02-26T10:44:33.653Z,64.06
2023-02-26T10:47:15.704Z,63.61
2023-02-26T10:49:56.692Z,63.86
2023-02-26T10:52:27.837Z,63.67
2023-02-26T10:55:01.203Z,62.80
2023-02-26T10:57:34.966Z,62.30
2023-02-26T11:00:05.233Z,62.42
2023-02-26T11:02:42.889Z,62.05
2023-02-26T11:05:37.149Z,61.58
2023-02-26T11:08:15.849Z,62.14
2023-02-26T11:10:53.500Z,62.37
2023-02-26T11:13:25.912Z,61.84
2023-02-26T11:15:57.120Z,61.89
2023-02-26T11:18:40.992Z,62.67
2023-02-26T11:21:16.972Z,62.62
2023-02-26T11:23:47.429Z,62.24
2023-02-26T11:26:18.148Z,61.68
2023-02-26T11:28:50.594Z,60.48
2023-02-26T11:31:22.342Z,60.98
2023-02-26T11:33:51.897Z,61.12
2023-02-26T11:36:21.976Z,61.24
2023-02-26T11:39:17.862Z,60.21
2023-02-26T11:41:48.673Z,57.98
2023-02-26T11:44:39.908Z,58.19
2023-02-26T11:47:16.594Z,57.94
2023-02-26T11:49:56.953Z,57.26
2023-02-26T11:52:36.004Z,56.87
2023-02-26T11:55:17.512Z,56.15
2023-02-26T11:57:45.275Z,55.21
2023-02-26T12:00:24.282Z,53.99
2023-02-26T12:02:57.075Z,54.00
2023-02-26T12:05:25.282Z,54.25
2023-02-26T12:07:52.965Z,54.50
2023-02-26T12:10:38.251Z,53.55
2023-02-26T12:13:19.169Z,53.98
2023-02-26T12:15:56.796Z,54.74
2023-02-26T12:18:52.018Z,54.07
2023-02-26T12:21:45.672Z,53.34
2023-02-26T12:24:46.170Z,53.38
2023-02-26T12:27:49.297Z,54.74
2023-02-26T12:30:29.177Z,54.58
2023-02-26T12:32:59.945Z,55.35
2023-02-26T12:35:36.548Z,56.11
2023-02-26T12:38:15.338Z,56.10
2023-02-26T12:40:57.805Z,55.09
2023-02-26T12:43:53.378Z,55.29
2023-02-26T12:46:42.519Z,55.62
2023-02-26T12:49:28.583Z,56.23
2023-02-26T12:52:16.228Z,57.23
2023-02-26T12:55:02.736Z,57.11
2023-02-26T12:57:30.611Z,56.10
2023-02-26T13:00:34.429Z,57.12
2023-02-26T13:03:30.053Z,56.56
2023-02-26T13:06:19.523Z,56.55
2023-02-26T13:08:47.162Z,56.36
2023-02-26T13:11:33.838Z,56.38
2023-02-26T13:14:18.590Z,56.66
2023-02-26T13:16:50.469Z,56.56
2023-02-26T13:19:38.144Z,56.05
2023-02-26T13:22:37.384Z,55.91
2023-02-26T13:25:20.205Z,56.60
2023-02-26T13:27:50.620Z,55.61
2023-02-26T13:30:53.312Z,56.26
2023-02-26T13:33:29.783Z,56.87
2023-02-26T13:36:00.330Z,56.14
2023-02-26T13:38:30.822Z,56.27
2023-02-26T13:41:09.880Z,56.66
2023-02-26T13:43:53.194Z,55.42
2023-02-26T13:46:48.361Z,55.23
2023-02-26T13:49:30.765Z,55.37
2023-02-26T13:51:58.877Z,54.43
2023-02-26T13:54:46.444Z,53.28
2023-02-26T13:57:37.210Z,53.47
2023-02-26T14:00:13.929Z,53.65
2023-02-26T14:02:47.817Z,52.45
2023-02-26T14:06:08.210Z,52.46
2023-02-26T14:08:41.680Z,52.45
2023-02-26T14:11:33.890Z,51.72
2023-02-26T14:14:12.349Z,51.65
2023-02-26T14:16:44.525Z,51.77
2023-02-26T14:19:21.252Z,52.39
2023-02-26T14:21:57.718Z,51.59
2023-02-26T14:24:44.469Z,51.22
2023-02-26T14:27:12.424Z,51.21
2023-02-26T14:29:58.284Z,51.74
2023-02-26T14:32:58.100Z,51.79
2023-02-26T14:35:33.453Z,51.92
2023-02-26T14:38:28.723Z,51.58
2023-02-26T14:41:18.820Z,51.54
2023-02-26T14:44:12.974Z,51.63
2023-02-26T14:46:41.112Z,51.57
2023-02-26T14:49:25.847Z,51.68
2023-02-26T14:52:23.052Z,51.92
2023-02-26T14:55:29.057Z,52.61
2023-02-26T14:58:22.536Z,53.22
2023-02-26T15:01:04.464Z,53.94
2023-02-26T15:03:49.135Z,53.60
2023-02-26T15:06:20.067Z,54.03
2023-02-26T15:09:06.454Z,52.72
2023-02-26T15:11:53.367Z,53.66
2023-02-26T15:14:46.933Z,53.87
2023-02-26T15:17:40.950Z,53.84
2023-02-26T15:20:37.519Z,53.65
2023-02-26T15:23:11.337Z,53.54
2023-02-26T15:25:45.863Z,54.08
2023-02-26T15:28:38.523Z,53.88
2023-02-26T15:31:08.801Z,55.18
2023-02-26T15:33:37.842Z,55.09
2023-02-26T15:36:10.215Z,55.48
2023-02-26T15:39:03.989Z,55.67
2023-02-26T15:41:33.980Z,56.02
2023-02-26T15:44:07.303Z,56.18
2023-02-26T15:46:42.878Z,56.30
2023-02-26T15:49:29.346Z,56.35
2023-02-26T15:51:59.296Z,56.59
2023-02-26T15:54:45.217Z,57.50
2023-02-26T15:57:15.054Z,58.19
2023-02-26T15:59:49.193Z,58.50
2023-02-26T16:02:20.121Z,59.04
2023-02-26T16:04:48.403Z,59.54
2023-02-26T16:07:16.155Z,59.87
2023-02-26T16:09:49.048Z,60.35
2023-02-26T16:12:24.481Z,61.12
2023-02-26T16:15:01.930Z,61.20
2023-02-26T16:17:35.603Z,61.53
2023-02-26T16:20:11.032Z,62.15
2023-02-26T16:23:07.634Z,63.03
2023-02-26T16:25:45.236Z,64.33
2023-02-26T16:28:37.910Z,64.89
2023-02-26T16:31:09.337Z,65.88
2023-02-26T16:33:38.561Z,66.51
2023-02-26T16:36:14.520Z,67.63
2023-02-26T16:39:03.414Z,68.49
2023-02-26T16:41:35.258Z,68.52
2023-02-26T16:44:25.072Z,69.27
2023-02-26T16:46:53.924Z,69.71
2023-02-26T16:49:32.906Z,69.76
2023-02-26T16:52:01.608Z,70.22
2023-02-26T16:54:35.425Z,70.83
2023-02-26T16:57:19.712Z,71.57
2023-02-26T16:59:51.446Z,72.60
2023-02-26T17:02:29.354Z,73.19
2023-02-26T17:05:03.624Z,74.26
2023-02-26T17:07:35.453Z,74.75
2023-02-26T17:10:21.901Z,75.51
2023-02-26T17:12:52.299Z,76.13
2023-02-26T17:15:32.457Z,76.38
2023-02-26T17:18:00.591Z,77.14
2023-02-26T17:20:30.223Z,78.15
2023-02-26T17:22:59.470Z,78.94
2023-02-26T17:25:31.025Z,78.93
2023-02-26T17:27:59.050Z,79.60
2023-02-26T17:30:29.975Z,79.48
2023-02-26T17:32:58.535Z,79.79
2023-02-26T17:35:26.408Z,80.30
2023-02-26T17:37:54.882Z,79.70
2023-02-26T17:40:26.599Z,79.47
2023-02-26T17:42:54.628Z,80.07
2023-02-26T17:45:22.365Z,79.81
2023-02-26T17:47:50.445Z,80.13
2023-02-26T17:50:43.907Z,80.32
2023-02-26T17:53:12.063Z,80.55
2023-02-26T17:55:40.869Z,81.25
2023-02-26T17:58:18.186Z,81.29
2023-02-26T18:00:49.810Z,81.46
2023-02-26T18:03:18.167Z,81.90
2023-02-26T18:05:46.624Z,82.05
2023-02-26T18:08:28.363Z,82.17
2023-02-26T18:10:57.104Z,81.90
2023-02-26T18:13:26.126Z,81.93
2023-02-26T18:15:56.643Z,81.77
2023-02-26T18:18:25.873Z,82.19
2023-02-26T18:20:54.152Z,81.90
2023-02-26T18:23:22.503Z,81.92
2023-02-26T18:25:52.872Z,82.00
2023-02-26T18:28:24.446Z,81.87
2023-02-26T18:30:52.881Z,82.11
2023-02-26T18:33:22.157Z,81.67
2023-02-26T18:35:54.975Z,81.47
2023-02-26T18:38:27.966Z,80.70
2023-02-26T18:40:56.158Z,80.33
2023-02-26T18:43:24.205Z,80.11
2023-02-26T18:45:52.482Z,79.76
2023-02-26T18:48:21.556Z,79.61
2023-02-26T18:50:50.200Z,79.10
2023-02-26T18:53:23.180Z,78.46
2023-02-26T18:55:53.083Z,77.74
2023-02-26T18:58:24.136Z,77.57
2023-02-26T19:00:52.324Z,77.42
2023-02-26T19:03:20.416Z,77.22
2023-02-26T19:05:57.443Z,77.69
2023-02-26T19:08:25.655Z,77.53
2023-02-26T19:10:53.715Z,77.45
2023-02-26T19:13:21.746Z,77.23
2023-02-26T19:15:50.979Z,76.67
2023-02-26T19:18:19.502Z,77.27
2023-02-26T19:20:47.474Z,76.99
2023-02-26T19:23:15.541Z,77.31
2023-02-26T19:25:43.330Z,77.44
2023-02-26T19:28:11.292Z,76.81
2023-02-26T19:30:39.804Z,76.24
2023-02-26T19:33:08.463Z,76.07
2023-02-26T19:35:36.316Z,75.69
2023-02-26T19:38:04.399Z,75.73
2023-02-26T19:40:32.124Z,75.54
2023-02-26T19:43:00.129Z,75.02
2023-02-26T19:45:27.886Z,74.63
2023-02-26T19:47:55.930Z,74.38
2023-02-26T19:50:25.626Z,74.13
2023-02-26T19:52:54.552Z,74.52
2023-02-26T19:55:22.282Z,74.59
2023-02-26T19:57:50.228Z,74.71
2023-02-26T20:00:18.010Z,75.08
2023-02-26T20:02:46.292Z,74.89
2023-02-26T20:05:17.134Z,75.13
2023-02-26T20:07:45.836Z,74.42
2023-02-26T20:10:15.747Z,73.94
2023-02-26T20:12:45.223Z,74.33
2023-02-26T20:15:13.697Z,74.58
2023-02-26T20:17:41.729Z,74.84
2023-02-26T20:20:10.231Z,74.66
2023-02-26T20:22:38.325Z,74.48
2023-02-26T20:25:06.435Z,73.93
2023-02-26T20:27:36.391Z,73.94
2023-02-26T20:30:05.149Z,73.75
2023-02-26T20:32:33.191Z,72.31
2023-02-26T20:35:00.872Z,71.10
2023-02-26T20:37:28.834Z,70.94
2023-02-26T20:39:56.642Z,70.50
2023-02-26T20:42:24.651Z,70.22
2023-02-26T20:44:52.364Z,70.12
2023-02-26T20:47:20.323Z,69.89
2023-02-26T20:49:48.215Z,69.80
2023-02-26T20:52:16.317Z,69.74
2023-02-26T20:54:44.983Z,69.46
2023-02-26T20:57:13.373Z,69.68
2023-02-26T20:59:41.145Z,69.83
2023-02-26T21:02:12.982Z,69.96
2023-02-26T21:04:40.985Z,69.93
2023-02-26T21:07:21.775Z,69.34
2023-02-26T21:09:52.221Z,69.67
2023-02-26T21:12:20.409Z,69.77
2023-02-26T21:14:50.487Z,69.93
2023-02-26T21:17:19.411Z,69.87
2023-02-26T21:19:47.167Z,70.31
2023-02-26T21:22:15.288Z,70.34
2023-02-26T21:24:43.489Z,70.27
2023-02-26T21:27:11.814Z,69.73
2023-02-26T21:29:39.873Z,70.04
2023-02-26T21:32:08.163Z,69.74
2023-02-26T21:34:36.117Z,69.62
2023-02-26T21:37:06.048Z,69.33
2023-02-26T21:39:34.828Z,69.70
2023-02-26T21:42:03.867Z,69.62
2023-02-26T21:44:33.380Z,69.43
2023-02-26T21:47:03.025Z,69.57
2023-02-26T21:49:32.045Z,69.71
2023-02-26T21:52:01.740Z,69.98
2023-02-26T21:54:29.895Z,69.26
2023-02-26T21:56:58.274Z,69.38
2023-02-26T21:59:26.468Z,69.33
2023-02-26T22:01:54.654Z,68.94
2023-02-26T22:04:22.412Z,68.74
2023-02-26T22:06:50.528Z,68.66
2023-02-26T22:09:21.942Z,68.82
2023-02-26T22:11:50.100Z,69.00
2023-02-26T22:14:17.758Z,69.24
2023-02-26T22:16:45.901Z,69.73
2023-02-26T22:19:13.607Z,69.87
2023-02-26T22:21:41.609Z,70.25
2023-02-26T22:24:09.787Z,70.11
2023-02-26T22:26:37.731Z,70.13
2023-02-26T22:29:05.564Z,70.10
2023-02-26T22:31:33.643Z,70.17
2023-02-26T22:34:01.436Z,70.49
2023-02-26T22:36:31.334Z,70.33
2023-02-26T22:38:59.140Z,70.57
2023-02-26T22:41:27.254Z,70.65
2023-02-26T22:43:56.128Z,70.94
2023-02-26T22:46:25.726Z,71.20
2023-02-26T22:48:53.823Z,71.31
2023-02-26T22:51:23.083Z,71.29
2023-02-26T22:53:51.302Z,71.36
2023-02-26T22:56:19.549Z,70.98
2023-02-26T22:58:47.240Z,71.05
2023-02-26T23:01:15.318Z,71.12
2023-02-26T23:03:43.111Z,71.24
2023-02-26T23:06:11.915Z,71.31
2023-02-26T23:08:40.282Z,71.30
2023-02-26T23:11:08.913Z,71.15
2023-02-26T23:13:38.222Z,71.11
2023-02-26T23:16:09.691Z,71.04
2023-02-26T23:18:39.286Z,70.78
2023-02-26T23:21:08.258Z,70.80
2023-02-26T23:23:36.107Z,70.69
2023-02-26T23:26:04.669Z,70.98
2023-02-26T23:28:33.182Z,71.21
2023-02-26T23:31:01.305Z,71.12
2023-02-26T23:33:29.294Z,71.14
2023-02-26T23:35:57.360Z,71.56
2023-02-26T23:38:25.082Z,71.85
2023-02-26T23:40:53.096Z,72.18
2023-02-26T23:43:20.772Z,72.68
2023-02-26T23:45:48.910Z,72.83
2023-02-26T23:48:16.899Z,72.97
2023-02-26T23:50:45.022Z,73.32
2023-02-26T23:53:12.840Z,72.98
2023-02-26T23:55:40.813Z,73.13
2023-02-26T23:58:08.504Z,73.38
